sensor_id;sensor_type;location;lat;lon;timestamp;temperature;humidity
41116;DHT22;26861;51.824;4.682;2023-04-19T00:03:00;18.60;76.00
41116;DHT22;26861;51.824;4.682;2023-04-19T00:05:27;18.30;86.40
41116;DHT22;26861;51.824;4.682;2023-04-19T00:07:52;18.10;86.60
41116;DHT22;26861;51.824;4.682;2023-04-19T00:12:44;18.60;86.60
41116;DHT22;26861;51.824;4.682;2023-04-19T00:15:10;18.50;86.80
41116;DHT22;26861;51.824;4.682;2023-04-19T00:17:35;18.40;69.90
41116;DHT22;26861;51.824;4.682;2023-04-19T00:20:02;18.50;78.30
41116;DHT22;26861;51.824;4.682;2023-04-19T00:24:55;18.60;64.50
41116;DHT22;26861;51.824;4.682;2023-04-19T00:32:14;18.50;54.40
41116;DHT22;26861;51.824;4.682;2023-04-19T00:34:40;18.70;87.00
41116;DHT22;26861;51.824;4.682;2023-04-19T00:37:09;18.30;86.50
41116;DHT22;26861;51.824;4.682;2023-04-19T00:46:55;18.80;59.70
41116;DHT22;26861;51.824;4.682;2023-04-19T00:49:22;18.50;54.00
41116;DHT22;26861;51.824;4.682;2023-04-19T00:51:49;18.40;54.20
41116;DHT22;26861;51.824;4.682;2023-04-19T00:54:15;18.30;72.00
41116;DHT22;26861;51.824;4.682;2023-04-19T00:56:42;18.50;54.20
41116;DHT22;26861;51.824;4.682;2023-04-19T00:59:08;18.30;76.90
41116;DHT22;26861;51.824;4.682;2023-04-19T01:01:34;18.20;86.30
41116;DHT22;26861;51.824;4.682;2023-04-19T01:04:00;18.60;65.20
41116;DHT22;26861;51.824;4.682;2023-04-19T01:06:29;18.60;86.80
41116;DHT22;26861;51.824;4.682;2023-04-19T01:08:55;18.60;86.70
41116;DHT22;26861;51.824;4.682;2023-04-19T01:11:24;18.40;51.10
41116;DHT22;26861;51.824;4.682;2023-04-19T01:13:50;18.50;86.60
41116;DHT22;26861;51.824;4.682;2023-04-19T01:18:42;18.30;86.50
41116;DHT22;26861;51.824;4.682;2023-04-19T01:21:08;18.60;75.30
41116;DHT22;26861;51.824;4.682;2023-04-19T01:23:34;18.30;54.40
41116;DHT22;26861;51.824;4.682;2023-04-19T01:26:01;18.50;86.70
41116;DHT22;26861;51.824;4.682;2023-04-19T01:28:27;18.00;86.20
41116;DHT22;26861;51.824;4.682;2023-04-19T01:33:20;18.50;85.40
41116;DHT22;26861;51.824;4.682;2023-04-19T01:35:47;18.20;86.60
41116;DHT22;26861;51.824;4.682;2023-04-19T01:38:14;18.40;53.40
41116;DHT22;26861;51.824;4.682;2023-04-19T01:40:40;18.30;86.60
41116;DHT22;26861;51.824;4.682;2023-04-19T01:43:06;18.50;86.70
41116;DHT22;26861;51.824;4.682;2023-04-19T01:45:33;18.50;86.80
41116;DHT22;26861;51.824;4.682;2023-04-19T01:48:01;18.60;86.80
41116;DHT22;26861;51.824;4.682;2023-04-19T01:50:29;18.50;81.30
41116;DHT22;26861;51.824;4.682;2023-04-19T01:52:54;18.50;71.40
41116;DHT22;26861;51.824;4.682;2023-04-19T01:55:20;18.30;86.90
41116;DHT22;26861;51.824;4.682;2023-04-19T01:57:46;18.40;86.70
41116;DHT22;26861;51.824;4.682;2023-04-19T02:00:12;18.50;58.90
41116;DHT22;26861;51.824;4.682;2023-04-19T02:02:37;18.10;55.70
41116;DHT22;26861;51.824;4.682;2023-04-19T02:05:05;18.30;54.60
41116;DHT22;26861;51.824;4.682;2023-04-19T02:07:30;18.20;86.70
41116;DHT22;26861;51.824;4.682;2023-04-19T02:09:56;18.50;86.90
41116;DHT22;26861;51.824;4.682;2023-04-19T02:12:25;18.40;71.60
41116;DHT22;26861;51.824;4.682;2023-04-19T02:14:53;18.20;86.90
41116;DHT22;26861;51.824;4.682;2023-04-19T02:17:25;18.30;54.70
41116;DHT22;26861;51.824;4.682;2023-04-19T02:19:51;18.50;86.80
41116;DHT22;26861;51.824;4.682;2023-04-19T02:22:17;18.20;86.90
41116;DHT22;26861;51.824;4.682;2023-04-19T02:24:43;18.10;86.80
41116;DHT22;26861;51.824;4.682;2023-04-19T02:27:08;18.30;86.90
41116;DHT22;26861;51.824;4.682;2023-04-19T02:29:34;18.40;87.20
41116;DHT22;26861;51.824;4.682;2023-04-19T02:31:59;18.50;80.90
41116;DHT22;26861;51.824;4.682;2023-04-19T02:34:26;18.90;55.00
41116;DHT22;26861;51.824;4.682;2023-04-19T02:36:52;18.50;87.00
41116;DHT22;26861;51.824;4.682;2023-04-19T02:39:18;18.30;86.50
41116;DHT22;26861;51.824;4.682;2023-04-19T02:53:54;18.00;69.00
41116;DHT22;26861;51.824;4.682;2023-04-19T02:58:46;18.10;54.70
41116;DHT22;26861;51.824;4.682;2023-04-19T03:01:11;18.40;59.90
41116;DHT22;26861;51.824;4.682;2023-04-19T03:35:16;18.20;87.50
41116;DHT22;26861;51.824;4.682;2023-04-19T03:37:42;18.00;87.40
41116;DHT22;26861;51.824;4.682;2023-04-19T03:40:08;18.10;80.30
41116;DHT22;26861;51.824;4.682;2023-04-19T03:42:34;18.10;87.50
41116;DHT22;26861;51.824;4.682;2023-04-19T03:45:00;18.40;84.60
41116;DHT22;26861;51.824;4.682;2023-04-19T03:47:26;18.40;87.10
41116;DHT22;26861;51.824;4.682;2023-04-19T03:57:10;18.40;73.30
41116;DHT22;26861;51.824;4.682;2023-04-19T04:02:05;18.40;73.80
41116;DHT22;26861;51.824;4.682;2023-04-19T04:09:23;17.90;75.30
41116;DHT22;26861;51.824;4.682;2023-04-19T04:14:14;18.20;87.70
41116;DHT22;26861;51.824;4.682;2023-04-19T04:16:40;18.00;87.60
41116;DHT22;26861;51.824;4.682;2023-04-19T04:21:32;18.00;78.50
41116;DHT22;26861;51.824;4.682;2023-04-19T04:26:26;18.40;87.10
41116;DHT22;26861;51.824;4.682;2023-04-19T04:28:55;18.40;64.60
41116;DHT22;26861;51.824;4.682;2023-04-19T04:36:13;18.30;67.90
41116;DHT22;26861;51.824;4.682;2023-04-19T04:38:40;17.80;85.50
41116;DHT22;26861;51.824;4.682;2023-04-19T04:43:32;18.10;66.30
41116;DHT22;26861;51.824;4.682;2023-04-19T05:07:54;18.30;87.70
41116;DHT22;26861;51.824;4.682;2023-04-19T05:12:45;18.30;67.80
41116;DHT22;26861;51.824;4.682;2023-04-19T05:20:03;18.40;71.80
41116;DHT22;26861;51.824;4.682;2023-04-19T05:22:30;17.80;87.20
41116;DHT22;26861;51.824;4.682;2023-04-19T05:24:55;18.00;62.00
41116;DHT22;26861;51.824;4.682;2023-04-19T05:44:26;18.20;80.10
41116;DHT22;26861;51.824;4.682;2023-04-19T05:54:10;18.20;74.40
41116;DHT22;26861;51.824;4.682;2023-04-19T06:01:30;18.40;83.70
41116;DHT22;26861;51.824;4.682;2023-04-19T06:03:56;18.00;86.50
41116;DHT22;26861;51.824;4.682;2023-04-19T06:06:22;18.50;86.70
41116;DHT22;26861;51.824;4.682;2023-04-19T06:08:49;18.50;86.70
41116;DHT22;26861;51.824;4.682;2023-04-19T06:16:09;18.40;86.40
41116;DHT22;26861;51.824;4.682;2023-04-19T06:18:34;18.10;86.40
41116;DHT22;26861;51.824;4.682;2023-04-19T06:21:00;18.50;86.60
41116;DHT22;26861;51.824;4.682;2023-04-19T06:25:52;18.10;79.90
41116;DHT22;26861;51.824;4.682;2023-04-19T06:30:44;18.60;56.80
41116;DHT22;26861;51.824;4.682;2023-04-19T06:33:10;18.20;72.00
41116;DHT22;26861;51.824;4.682;2023-04-19T06:38:02;18.50;66.70
41116;DHT22;26861;51.824;4.682;2023-04-19T06:50:13;18.50;88.10
41116;DHT22;26861;51.824;4.682;2023-04-19T06:52:38;18.50;88.40
41116;DHT22;26861;51.824;4.682;2023-04-19T06:55:05;18.30;84.10
41116;DHT22;26861;51.824;4.682;2023-04-19T06:57:31;18.30;88.00
41116;DHT22;26861;51.824;4.682;2023-04-19T06:59:57;18.50;88.30
41116;DHT22;26861;51.824;4.682;2023-04-19T07:02:23;18.30;87.90
41116;DHT22;26861;51.824;4.682;2023-04-19T07:04:48;18.80;88.20
41116;DHT22;26861;51.824;4.682;2023-04-19T07:07:14;18.70;87.80
41116;DHT22;26861;51.824;4.682;2023-04-19T07:09:39;18.90;71.90
41116;DHT22;26861;51.824;4.682;2023-04-19T07:16:58;18.80;70.50
41116;DHT22;26861;51.824;4.682;2023-04-19T07:21:50;18.90;87.60
41116;DHT22;26861;51.824;4.682;2023-04-19T07:24:16;18.90;87.70
41116;DHT22;26861;51.824;4.682;2023-04-19T07:29:08;18.60;65.70
41116;DHT22;26861;51.824;4.682;2023-04-19T07:31:34;19.00;71.20
41116;DHT22;26861;51.824;4.682;2023-04-19T07:34:00;18.50;87.90
41116;DHT22;26861;51.824;4.682;2023-04-19T07:36:26;18.60;87.80
41116;DHT22;26861;51.824;4.682;2023-04-19T07:38:52;18.70;88.00
41116;DHT22;26861;51.824;4.682;2023-04-19T07:41:20;18.80;56.30
41116;DHT22;26861;51.824;4.682;2023-04-19T07:43:46;19.00;72.60
41116;DHT22;26861;51.824;4.682;2023-04-19T07:46:13;18.70;56.20
41116;DHT22;26861;51.824;4.682;2023-04-19T07:48:40;19.00;88.70
41116;DHT22;26861;51.824;4.682;2023-04-19T07:51:10;18.70;88.50
41116;DHT22;26861;51.824;4.682;2023-04-19T07:53:37;19.00;88.70
41116;DHT22;26861;51.824;4.682;2023-04-19T07:56:05;18.70;88.00
41116;DHT22;26861;51.824;4.682;2023-04-19T07:58:31;18.60;88.80
41116;DHT22;26861;51.824;4.682;2023-04-19T08:03:23;18.80;89.10
41116;DHT22;26861;51.824;4.682;2023-04-19T08:05:48;18.80;89.20
41116;DHT22;26861;51.824;4.682;2023-04-19T08:08:14;19.00;89.10
41116;DHT22;26861;51.824;4.682;2023-04-19T08:10:40;18.60;57.50
41116;DHT22;26861;51.824;4.682;2023-04-19T08:15:33;18.70;57.40
41116;DHT22;26861;51.824;4.682;2023-04-19T08:17:58;18.60;89.40
41116;DHT22;26861;51.824;4.682;2023-04-19T08:20:24;19.00;89.60
41116;DHT22;26861;51.824;4.682;2023-04-19T08:22:51;18.50;89.50
41116;DHT22;26861;51.824;4.682;2023-04-19T08:25:18;18.30;89.50
41116;DHT22;26861;51.824;4.682;2023-04-19T08:27:44;18.90;85.00
41116;DHT22;26861;51.824;4.682;2023-04-19T08:30:10;18.00;56.70
41116;DHT22;26861;51.824;4.682;2023-04-19T08:32:36;19.20;60.80
41116;DHT22;26861;51.824;4.682;2023-04-19T08:35:02;18.90;61.20
41116;DHT22;26861;51.824;4.682;2023-04-19T08:37:28;19.10;89.90
41116;DHT22;26861;51.824;4.682;2023-04-19T08:39:54;19.00;72.30
41116;DHT22;26861;51.824;4.682;2023-04-19T08:44:46;18.80;89.20
41116;DHT22;26861;51.824;4.682;2023-04-19T08:47:14;19.10;89.90
41116;DHT22;26861;51.824;4.682;2023-04-19T08:49:41;18.80;89.90
41116;DHT22;26861;51.824;4.682;2023-04-19T08:52:09;18.20;57.10
41116;DHT22;26861;51.824;4.682;2023-04-19T08:54:37;19.10;89.70
41116;DHT22;26861;51.824;4.682;2023-04-19T08:57:04;19.30;57.50
41116;DHT22;26861;51.824;4.682;2023-04-19T08:59:30;19.30;89.80
41116;DHT22;26861;51.824;4.682;2023-04-19T09:02:00;19.30;90.00
41116;DHT22;26861;51.824;4.682;2023-04-19T09:06:52;19.30;65.70
41116;DHT22;26861;51.824;4.682;2023-04-19T09:11:45;19.50;90.00
41116;DHT22;26861;51.824;4.682;2023-04-19T09:14:12;19.30;56.00
41116;DHT22;26861;51.824;4.682;2023-04-19T09:16:38;19.50;72.00
41116;DHT22;26861;51.824;4.682;2023-04-19T09:23:57;19.00;88.40
41116;DHT22;26861;51.824;4.682;2023-04-19T09:29:03;19.60;52.00
41116;DHT22;26861;51.824;4.682;2023-04-19T09:31:34;19.60;88.70
41116;DHT22;26861;51.824;4.682;2023-04-19T09:34:17;19.60;62.80
41116;DHT22;26861;51.824;4.682;2023-04-19T09:36:42;19.60;88.70
41116;DHT22;26861;51.824;4.682;2023-04-19T09:39:08;19.50;88.40
41116;DHT22;26861;51.824;4.682;2023-04-19T09:44:12;19.80;51.50
41116;DHT22;26861;51.824;4.682;2023-04-19T09:46:40;19.60;60.80
41116;DHT22;26861;51.824;4.682;2023-04-19T09:49:25;20.00;88.10
41116;DHT22;26861;51.824;4.682;2023-04-19T09:51:56;20.40;51.60
41116;DHT22;26861;51.824;4.682;2023-04-19T09:54:25;20.10;55.40
41116;DHT22;26861;51.824;4.682;2023-04-19T09:56:56;20.40;87.80
41116;DHT22;26861;51.824;4.682;2023-04-19T09:59:22;20.00;87.20
41116;DHT22;26861;51.824;4.682;2023-04-19T10:01:53;20.60;63.60
41116;DHT22;26861;51.824;4.682;2023-04-19T10:04:19;20.50;64.10
41116;DHT22;26861;51.824;4.682;2023-04-19T10:06:50;20.50;60.30
41116;DHT22;26861;51.824;4.682;2023-04-19T10:09:25;20.70;87.20
41116;DHT22;26861;51.824;4.682;2023-04-19T10:11:52;20.70;86.90
41116;DHT22;26861;51.824;4.682;2023-04-19T10:14:23;20.50;86.40
41116;DHT22;26861;51.824;4.682;2023-04-19T10:16:52;20.40;59.30
41116;DHT22;26861;51.824;4.682;2023-04-19T10:19:19;20.60;57.50
41116;DHT22;26861;51.824;4.682;2023-04-19T10:21:49;20.80;60.90
41116;DHT22;26861;51.824;4.682;2023-04-19T10:24:16;20.30;60.60
41116;DHT22;26861;51.824;4.682;2023-04-19T10:27:06;20.80;50.00
41116;DHT22;26861;51.824;4.682;2023-04-19T10:30:01;20.90;49.30
41116;DHT22;26861;51.824;4.682;2023-04-19T10:32:37;20.90;53.40
41116;DHT22;26861;51.824;4.682;2023-04-19T10:35:20;20.90;84.80
41116;DHT22;26861;51.824;4.682;2023-04-19T10:38:05;21.10;49.20
41116;DHT22;26861;51.824;4.682;2023-04-19T10:43:17;21.50;62.50
41116;DHT22;26861;51.824;4.682;2023-04-19T10:45:43;21.60;85.30
41116;DHT22;26861;51.824;4.682;2023-04-19T10:48:37;21.60;84.10
41116;DHT22;26861;51.824;4.682;2023-04-19T10:51:14;21.50;85.10
41116;DHT22;26861;51.824;4.682;2023-04-19T10:53:52;21.80;84.90
41116;DHT22;26861;51.824;4.682;2023-04-19T11:01:36;21.40;84.50
41116;DHT22;26861;51.824;4.682;2023-04-19T11:04:08;21.70;54.70
41116;DHT22;26861;51.824;4.682;2023-04-19T11:09:00;22.30;84.00
41116;DHT22;26861;51.824;4.682;2023-04-19T11:11:27;21.90;53.50
41116;DHT22;26861;51.824;4.682;2023-04-19T11:13:54;22.00;84.10
41116;DHT22;26861;51.824;4.682;2023-04-19T11:16:20;22.00;69.90
41116;DHT22;26861;51.824;4.682;2023-04-19T11:18:46;21.90;83.20
41116;DHT22;26861;51.824;4.682;2023-04-19T11:21:17;22.90;53.50
41116;DHT22;26861;51.824;4.682;2023-04-19T11:23:42;22.00;81.80
41116;DHT22;26861;51.824;4.682;2023-04-19T11:26:11;22.50;82.00
41116;DHT22;26861;51.824;4.682;2023-04-19T11:28:38;22.30;79.50
41116;DHT22;26861;51.824;4.682;2023-04-19T11:31:04;22.30;49.90
41116;DHT22;26861;51.824;4.682;2023-04-19T11:33:34;22.60;73.80
41116;DHT22;26861;51.824;4.682;2023-04-19T11:36:01;22.40;50.00
41116;DHT22;26861;51.824;4.682;2023-04-19T11:38:28;22.50;82.00
41116;DHT22;26861;51.824;4.682;2023-04-19T11:41:01;22.70;61.20
41116;DHT22;26861;51.824;4.682;2023-04-19T11:43:34;22.60;46.00
41116;DHT22;26861;51.824;4.682;2023-04-19T11:46:07;22.20;68.90
41116;DHT22;26861;51.824;4.682;2023-04-19T11:51:01;22.50;79.70
41116;DHT22;26861;51.824;4.682;2023-04-19T11:53:29;22.80;79.70
41116;DHT22;26861;51.824;4.682;2023-04-19T11:56:06;22.80;62.80
41116;DHT22;26861;51.824;4.682;2023-04-19T11:58:41;22.80;79.00
41116;DHT22;26861;51.824;4.682;2023-04-19T12:01:14;23.20;48.30
41116;DHT22;26861;51.824;4.682;2023-04-19T12:03:44;23.00;56.60
41116;DHT22;26861;51.824;4.682;2023-04-19T12:06:31;23.20;79.20
41116;DHT22;26861;51.824;4.682;2023-04-19T12:08:57;22.80;58.30
41116;DHT22;26861;51.824;4.682;2023-04-19T12:11:45;23.40;79.70
41116;DHT22;26861;51.824;4.682;2023-04-19T12:14:12;23.70;80.00
41116;DHT22;26861;51.824;4.682;2023-04-19T12:16:39;23.10;79.00
41116;DHT22;26861;51.824;4.682;2023-04-19T12:19:13;23.30;78.10
41116;DHT22;26861;51.824;4.682;2023-04-19T12:21:39;23.20;78.00
41116;DHT22;26861;51.824;4.682;2023-04-19T12:26:32;23.70;77.00
41116;DHT22;26861;51.824;4.682;2023-04-19T12:29:00;23.50;76.60
41116;DHT22;26861;51.824;4.682;2023-04-19T12:31:27;23.90;77.20
41116;DHT22;26861;51.824;4.682;2023-04-19T12:33:56;24.00;76.90
41116;DHT22;26861;51.824;4.682;2023-04-19T12:36:24;23.40;76.90
41116;DHT22;26861;51.824;4.682;2023-04-19T12:38:50;23.90;76.30
41116;DHT22;26861;51.824;4.682;2023-04-19T12:41:16;23.80;77.40
41116;DHT22;26861;51.824;4.682;2023-04-19T12:43:42;23.60;77.30
41116;DHT22;26861;51.824;4.682;2023-04-19T12:46:08;23.60;76.90
41116;DHT22;26861;51.824;4.682;2023-04-19T12:51:00;24.20;71.00
41116;DHT22;26861;51.824;4.682;2023-04-19T12:53:26;24.40;77.20
41116;DHT22;26861;51.824;4.682;2023-04-19T12:55:52;24.00;77.20
41116;DHT22;26861;51.824;4.682;2023-04-19T12:58:18;24.20;44.00
41116;DHT22;26861;51.824;4.682;2023-04-19T13:00:45;23.70;75.60
41116;DHT22;26861;51.824;4.682;2023-04-19T13:03:11;23.70;74.60
41116;DHT22;26861;51.824;4.682;2023-04-19T13:05:37;23.90;75.80
41116;DHT22;26861;51.824;4.682;2023-04-19T13:08:03;23.70;53.10
41116;DHT22;26861;51.824;4.682;2023-04-19T13:15:23;24.20;74.00
41116;DHT22;26861;51.824;4.682;2023-04-19T13:17:49;24.30;75.20
41116;DHT22;26861;51.824;4.682;2023-04-19T13:20:15;24.20;74.60
41116;DHT22;26861;51.824;4.682;2023-04-19T13:22:41;23.90;74.40
41116;DHT22;26861;51.824;4.682;2023-04-19T13:25:07;24.70;74.80
41116;DHT22;26861;51.824;4.682;2023-04-19T13:27:33;24.60;60.10
41116;DHT22;26861;51.824;4.682;2023-04-19T13:29:58;24.30;74.50
41116;DHT22;26861;51.824;4.682;2023-04-19T13:32:24;24.30;59.40
41116;DHT22;26861;51.824;4.682;2023-04-19T13:44:34;24.10;52.00
41116;DHT22;26861;51.824;4.682;2023-04-19T14:01:36;24.70;40.60
41116;DHT22;26861;51.824;4.682;2023-04-19T14:16:13;24.40;72.10
41116;DHT22;26861;51.824;4.682;2023-04-19T14:18:38;24.70;71.80
41116;DHT22;26861;51.824;4.682;2023-04-19T14:21:04;24.20;71.30
41116;DHT22;26861;51.824;4.682;2023-04-19T14:23:30;24.90;46.60
41116;DHT22;26861;51.824;4.682;2023-04-19T14:25:56;24.20;55.40
41116;DHT22;26861;51.824;4.682;2023-04-19T14:30:48;24.40;55.20
41116;DHT22;26861;51.824;4.682;2023-04-19T14:35:40;24.00;42.60
41116;DHT22;26861;51.824;4.682;2023-04-19T14:38:06;24.50;72.30
41116;DHT22;26861;51.824;4.682;2023-04-19T14:42:58;24.20;69.50
41116;DHT22;26861;51.824;4.682;2023-04-19T14:47:50;24.00;70.00
41116;DHT22;26861;51.824;4.682;2023-04-19T14:50:16;24.60;59.30
41116;DHT22;26861;51.824;4.682;2023-04-19T14:55:08;24.30;39.10
41116;DHT22;26861;51.824;4.682;2023-04-19T15:02:26;24.60;53.30
41116;DHT22;26861;51.824;4.682;2023-04-19T15:04:52;24.30;69.20
41116;DHT22;26861;51.824;4.682;2023-04-19T15:07:18;24.20;56.50
41116;DHT22;26861;51.824;4.682;2023-04-19T15:09:44;24.60;72.30
41116;DHT22;26861;51.824;4.682;2023-04-19T15:14:38;24.40;40.90
41116;DHT22;26861;51.824;4.682;2023-04-19T15:17:04;24.20;39.00
41116;DHT22;26861;51.824;4.682;2023-04-19T15:19:30;24.20;49.30
41116;DHT22;26861;51.824;4.682;2023-04-19T15:21:56;24.10;61.00
41116;DHT22;26861;51.824;4.682;2023-04-19T15:38:58;23.80;37.50
41116;DHT22;26861;51.824;4.682;2023-04-19T15:43:50;23.40;54.10
41116;DHT22;26861;51.824;4.682;2023-04-19T15:48:43;23.40;39.10
41116;DHT22;26861;51.824;4.682;2023-04-19T15:51:10;23.70;39.20
41116;DHT22;26861;51.824;4.682;2023-04-19T15:56:02;23.60;38.30
41116;DHT22;26861;51.824;4.682;2023-04-19T16:00:54;23.40;58.80
41116;DHT22;26861;51.824;4.682;2023-04-19T16:10:44;23.00;70.70
41116;DHT22;26861;51.824;4.682;2023-04-19T16:13:10;23.20;56.00
41116;DHT22;26861;51.824;4.682;2023-04-19T16:15:38;23.00;70.60
41116;DHT22;26861;51.824;4.682;2023-04-19T16:22:56;22.30;38.30
41116;DHT22;26861;51.824;4.682;2023-04-19T16:25:22;22.90;47.20
41116;DHT22;26861;51.824;4.682;2023-04-19T16:30:14;23.00;38.30
41116;DHT22;26861;51.824;4.682;2023-04-19T16:32:41;22.50;70.80
41116;DHT22;26861;51.824;4.682;2023-04-19T16:35:07;23.20;71.80
41116;DHT22;26861;51.824;4.682;2023-04-19T16:37:34;22.90;71.00
41116;DHT22;26861;51.824;4.682;2023-04-19T16:40:08;22.70;39.60
41116;DHT22;26861;51.824;4.682;2023-04-19T16:42:35;22.90;43.30
41116;DHT22;26861;51.824;4.682;2023-04-19T16:45:01;22.40;71.30
41116;DHT22;26861;51.824;4.682;2023-04-19T16:47:26;22.50;71.70
41116;DHT22;26861;51.824;4.682;2023-04-19T16:49:57;22.60;55.20
41116;DHT22;26861;51.824;4.682;2023-04-19T16:52:27;22.70;71.10
41116;DHT22;26861;51.824;4.682;2023-04-19T16:57:22;22.50;45.20
41116;DHT22;26861;51.824;4.682;2023-04-19T17:04:40;22.60;54.10
41116;DHT22;26861;51.824;4.682;2023-04-19T17:09:36;22.30;39.00
41116;DHT22;26861;51.824;4.682;2023-04-19T17:19:20;22.20;58.30
41116;DHT22;26861;51.824;4.682;2023-04-19T17:29:04;22.00;50.70
41116;DHT22;26861;51.824;4.682;2023-04-19T17:31:30;21.70;47.60
41116;DHT22;26861;51.824;4.682;2023-04-19T17:43:43;21.90;41.50
41116;DHT22;26861;51.824;4.682;2023-04-19T18:00:46;21.30;74.70
41116;DHT22;26861;51.824;4.682;2023-04-19T18:03:12;21.10;51.30
41116;DHT22;26861;51.824;4.682;2023-04-19T18:05:38;21.40;41.60
41116;DHT22;26861;51.824;4.682;2023-04-19T18:08:04;21.30;75.20
41116;DHT22;26861;51.824;4.682;2023-04-19T18:10:30;21.50;75.00
41116;DHT22;26861;51.824;4.682;2023-04-19T18:12:56;21.20;75.60
41116;DHT22;26861;51.824;4.682;2023-04-19T18:15:22;21.30;52.20
41116;DHT22;26861;51.824;4.682;2023-04-19T18:25:06;21.50;68.00
41116;DHT22;26861;51.824;4.682;2023-04-19T18:27:32;20.90;75.30
41116;DHT22;26861;51.824;4.682;2023-04-19T18:34:52;21.00;76.50
41116;DHT22;26861;51.824;4.682;2023-04-19T18:37:18;20.70;76.10
41116;DHT22;26861;51.824;4.682;2023-04-19T18:42:10;21.30;49.90
41116;DHT22;26861;51.824;4.682;2023-04-19T18:44:36;20.90;56.30
41116;DHT22;26861;51.824;4.682;2023-04-19T18:49:28;20.90;76.70
41116;DHT22;26861;51.824;4.682;2023-04-19T18:51:54;21.20;59.50
41116;DHT22;26861;51.824;4.682;2023-04-19T19:01:38;21.00;53.90
41116;DHT22;26861;51.824;4.682;2023-04-19T19:06:30;20.90;77.60
41116;DHT22;26861;51.824;4.682;2023-04-19T19:18:42;20.50;77.80
41116;DHT22;26861;51.824;4.682;2023-04-19T19:23:34;20.30;74.30
41116;DHT22;26861;51.824;4.682;2023-04-19T19:26:00;20.80;54.90
41116;DHT22;26861;51.824;4.682;2023-04-19T19:40:36;20.60;44.60
41116;DHT22;26861;51.824;4.682;2023-04-19T19:43:02;20.40;47.70
41116;DHT22;26861;51.824;4.682;2023-04-19T19:45:29;20.60;45.00
41116;DHT22;26861;51.824;4.682;2023-04-19T19:47:56;20.80;47.20
41116;DHT22;26861;51.824;4.682;2023-04-19T19:50:25;20.50;58.80
41116;DHT22;26861;51.824;4.682;2023-04-19T19:52:51;20.50;76.40
41116;DHT22;26861;51.824;4.682;2023-04-19T19:55:16;20.40;76.50
41116;DHT22;26861;51.824;4.682;2023-04-19T19:57:42;20.60;58.10
41116;DHT22;26861;51.824;4.682;2023-04-19T20:00:09;20.10;49.80
41116;DHT22;26861;51.824;4.682;2023-04-19T20:02:36;20.20;56.10
41116;DHT22;26861;51.824;4.682;2023-04-19T20:05:02;20.50;77.30
41116;DHT22;26861;51.824;4.682;2023-04-19T20:07:28;20.60;67.20
41116;DHT22;26861;51.824;4.682;2023-04-19T20:22:04;19.90;66.60
41116;DHT22;26861;51.824;4.682;2023-04-19T20:26:56;20.10;69.50
41116;DHT22;26861;51.824;4.682;2023-04-19T20:39:07;20.00;77.10
41116;DHT22;26861;51.824;4.682;2023-04-19T20:41:38;20.10;77.20
41116;DHT22;26861;51.824;4.682;2023-04-19T20:46:33;20.10;73.50
41116;DHT22;26861;51.824;4.682;2023-04-19T20:48:59;20.00;78.00
41116;DHT22;26861;51.824;4.682;2023-04-19T20:51:24;20.20;78.30
41116;DHT22;26861;51.824;4.682;2023-04-19T20:56:17;20.20;78.50
41116;DHT22;26861;51.824;4.682;2023-04-19T20:58:43;19.90;78.40
41116;DHT22;26861;51.824;4.682;2023-04-19T21:03:38;20.10;78.80
41116;DHT22;26861;51.824;4.682;2023-04-19T21:06:04;20.30;78.80
41116;DHT22;26861;51.824;4.682;2023-04-19T21:08:30;19.90;70.70
41116;DHT22;26861;51.824;4.682;2023-04-19T21:30:25;20.10;78.80
41116;DHT22;26861;51.824;4.682;2023-04-19T21:32:51;20.20;78.90
41116;DHT22;26861;51.824;4.682;2023-04-19T21:35:17;20.20;79.00
41116;DHT22;26861;51.824;4.682;2023-04-19T21:40:10;20.00;59.70
41116;DHT22;26861;51.824;4.682;2023-04-19T21:42:36;20.20;78.90
41116;DHT22;26861;51.824;4.682;2023-04-19T21:45:03;20.00;78.60
41116;DHT22;26861;51.824;4.682;2023-04-19T21:52:22;19.80;51.60
41116;DHT22;26861;51.824;4.682;2023-04-19T21:57:14;19.80;61.70
41116;DHT22;26861;51.824;4.682;2023-04-19T22:02:08;20.10;78.60
41116;DHT22;26861;51.824;4.682;2023-04-19T22:09:28;19.90;79.10
41116;DHT22;26861;51.824;4.682;2023-04-19T22:11:53;19.60;78.90
41116;DHT22;26861;51.824;4.682;2023-04-19T22:16:48;19.50;78.90
41116;DHT22;26861;51.824;4.682;2023-04-19T22:19:13;19.80;79.00
41116;DHT22;26861;51.824;4.682;2023-04-19T22:21:39;19.50;79.00
41116;DHT22;26861;51.824;4.682;2023-04-19T22:24:05;19.70;78.80
41116;DHT22;26861;51.824;4.682;2023-04-19T22:26:30;19.80;78.90
41116;DHT22;26861;51.824;4.682;2023-04-19T22:33:50;19.30;56.00
41116;DHT22;26861;51.824;4.682;2023-04-19T22:55:46;19.20;58.70
41116;DHT22;26861;51.824;4.682;2023-04-19T23:07:56;18.90;49.80
41116;DHT22;26861;51.824;4.682;2023-04-19T23:10:27;19.10;78.80
41116;DHT22;26861;51.824;4.682;2023-04-19T23:12:53;19.40;69.60
41116;DHT22;26861;51.824;4.682;2023-04-19T23:15:20;19.10;78.90
41116;DHT22;26861;51.824;4.682;2023-04-19T23:17:45;18.80;78.90
41116;DHT22;26861;51.824;4.682;2023-04-19T23:20:11;18.80;78.90
41116;DHT22;26861;51.824;4.682;2023-04-19T23:22:38;19.20;79.40
41116;DHT22;26861;51.824;4.682;2023-04-19T23:27:31;19.20;55.20
41116;DHT22;26861;51.824;4.682;2023-04-19T23:29:57;19.20;79.00
41116;DHT22;26861;51.824;4.682;2023-04-19T23:32:22;19.10;79.20
41116;DHT22;26861;51.824;4.682;2023-04-19T23:56:46;19.10;45.60
